Time;durP1;ratioP1;P1;durP2;ratioP2;P2;SDS_P1;SDS_P2;PMS_P1;PMS_P2;Temp;Humidity;BMP_temperature;BMP_pressure;BME280_temperature;BME280_humidity;BME280_pressure;Samples;Min_cycle;Max_cycle;Signal;HPM_P1;HPM_P2
2023/10/16 00:01:09;;;;;;;5.00;4.00;;;;;;;4.12;100.00;152421.25;5027077;28;20447;-78
2023/10/16 00:03:38;;;;;;;5.30;4.73;;;;;;;4.11;100.00;152418.66;5027232;28;20424;-78
2023/10/16 00:06:06;;;;;;;5.37;4.53;;;;;;;4.10;100.00;152416.09;5019623;28;20452;-78
2023/10/16 00:08:33;;;;;;;5.90;4.67;;;;;;;4.09;100.00;152414.81;5019661;28;20464;-78
2023/10/16 00:11:01;;;;;;;6.27;4.77;;;;;;;4.07;100.00;152409.66;5015837;28;20498;-78
2023/10/16 00:13:28;;;;;;;5.50;4.90;;;;;;;4.04;100.00;152401.94;5026303;28;20442;-78
2023/10/16 00:15:55;;;;;;;10.23;4.50;;;;;;;4.02;100.00;152395.50;5024173;28;20464;-78
2023/10/16 00:18:24;;;;;;;7.70;4.30;;;;;;;4.00;100.00;152390.31;5028445;28;20475;-78
2023/10/16 00:20:51;;;;;;;5.03;4.53;;;;;;;3.99;100.00;152389.06;5019829;28;20455;-78
2023/10/16 00:23:18;;;;;;;6.73;5.17;;;;;;;4.00;100.00;152391.59;5026135;28;20440;-78
2023/10/16 00:25:46;;;;;;;6.67;5.07;;;;;;;3.99;100.00;152387.75;5010170;28;20436;-78
2023/10/16 00:28:15;;;;;;;5.70;5.10;;;;;;;3.92;100.00;152369.75;5017540;28;20548;-78
2023/10/16 00:30:43;;;;;;;4.80;3.93;;;;;;;3.91;100.00;152367.16;5028797;28;20459;-78
2023/10/16 00:33:10;;;;;;;4.63;4.23;;;;;;;3.92;100.00;152369.75;5021072;28;20637;-78
2023/10/16 00:35:38;;;;;;;4.73;4.23;;;;;;;3.90;100.00;152365.84;5029871;28;20857;-78
2023/10/16 00:38:12;;;;;;;4.23;3.83;;;;;;;3.88;100.00;152360.72;5017761;28;20825;-78
2023/10/16 00:40:40;;;;;;;5.27;4.20;;;;;;;3.88;100.00;152359.44;5025871;28;20591;-78
2023/10/16 00:43:11;;;;;;;4.80;4.30;;;;;;;3.84;100.00;152349.16;5012818;28;20467;-78
2023/10/16 00:45:45;;;;;;;4.57;3.70;;;;;;;3.79;100.00;152337.53;5036015;28;20447;-78
2023/10/16 00:48:13;;;;;;;4.60;4.00;;;;;;;3.77;100.00;152331.09;5022566;28;20994;-78
2023/10/16 00:50:41;;;;;;;4.10;3.53;;;;;;;3.75;100.00;152325.94;5031012;28;20459;-78
2023/10/16 00:53:08;;;;;;;7.03;4.10;;;;;;;3.78;100.00;152333.69;5031666;28;20950;-78
2023/10/16 00:55:35;;;;;;;6.20;4.13;;;;;;;3.78;100.00;152333.69;5022817;28;20494;-78
2023/10/16 00:58:06;;;;;;;5.00;3.63;;;;;;;3.73;100.00;152320.81;5027975;28;20457;-78
2023/10/16 01:00:37;;;;;;;4.17;3.60;;;;;;;3.74;100.00;152324.66;5030620;28;20443;-78
2023/10/16 01:03:05;;;;;;;3.97;3.37;;;;;;;3.76;100.00;152329.78;5030894;28;20470;-78
2023/10/16 01:05:33;;;;;;;4.90;4.00;;;;;;;3.72;100.00;152319.50;5030606;28;20479;-78
2023/10/16 01:08:02;;;;;;;4.30;3.90;;;;;;;3.72;100.00;152318.22;5036832;28;20843;-78
2023/10/16 01:10:31;;;;;;;4.57;4.10;;;;;;;3.66;100.00;152305.34;5012162;28;20454;-78
2023/10/16 01:12:59;;;;;;;4.43;2.93;;;;;;;3.66;100.00;152305.34;5024860;28;20967;-78
2023/10/16 01:15:27;;;;;;;4.37;3.73;;;;;;;3.63;100.00;152297.63;5040000;28;20448;-78
2023/10/16 01:17:54;;;;;;;3.43;3.13;;;;;;;3.56;100.00;152279.63;5030438;28;20432;-78
2023/10/16 01:20:20;;;;;;;3.83;3.27;;;;;;;3.53;100.00;152270.59;5023861;28;20451;-78
2023/10/16 01:22:47;;;;;;;4.47;3.23;;;;;;;3.51;100.00;152266.75;5028958;28;20806;-78
2023/10/16 01:25:17;;;;;;;4.80;3.87;;;;;;;3.49;100.00;152261.59;5029606;28;20817;-78
2023/10/16 01:27:43;;;;;;;4.10;3.40;;;;;;;3.49;100.00;152261.59;5029875;28;20483;-78
2023/10/16 01:30:12;;;;;;;4.20;3.30;;;;;;;3.45;100.00;152251.28;5029342;28;21057;-78
2023/10/16 01:32:39;;;;;;;5.40;3.80;;;;;;;3.44;100.00;152248.69;5011917;28;20463;-78
2023/10/16 01:35:08;;;;;;;4.13;3.73;;;;;;;3.51;100.00;152266.75;5009440;28;20429;-78
2023/10/16 01:37:38;;;;;;;4.60;3.57;;;;;;;3.50;100.00;152262.84;5013128;28;20464;-78
2023/10/16 01:40:22;;;;;;;5.27;4.13;;;;;;;3.54;100.00;152273.19;5033284;28;20526;-78
2023/10/16 01:42:59;;;;;;;4.97;4.30;;;;;;;3.65;100.00;152301.50;5013317;28;20451;-78
2023/10/16 01:45:27;;;;;;;4.13;3.73;;;;;;;3.68;100.00;152310.50;5012724;28;20432;-78
2023/10/16 01:47:53;;;;;;;4.10;3.63;;;;;;;3.67;100.00;152306.66;5025146;28;20459;-78
2023/10/16 01:50:26;;;;;;;4.43;4.03;;;;;;;3.63;100.00;152297.63;5016165;28;20451;-78
2023/10/16 01:52:54;;;;;;;5.83;4.13;;;;;;;3.57;100.00;152282.16;4992925;28;20761;-78
2023/10/16 01:55:21;;;;;;;5.83;4.33;;;;;;;3.52;100.00;152269.28;5021688;28;20432;-78
2023/10/16 01:57:50;;;;;;;4.00;3.47;;;;;;;3.56;100.00;152278.31;5008307;28;20997;-78
2023/10/16 02:00:24;;;;;;;4.23;3.83;;;;;;;3.52;100.00;152269.28;5008654;28;20455;-78
2023/10/16 02:02:51;;;;;;;4.60;3.90;;;;;;;3.44;100.00;152248.69;5026904;28;20915;-78
2023/10/16 02:05:18;;;;;;;4.07;3.67;;;;;;;3.39;100.00;152234.59;5024046;28;20838;-78
2023/10/16 02:07:46;;;;;;;4.10;3.50;;;;;;;3.32;100.00;152217.81;5021459;28;20470;-78
2023/10/16 02:10:13;;;;;;;4.87;4.20;;;;;;;3.37;100.00;152230.69;5025235;28;20477;-78
2023/10/16 02:12:40;;;;;;;5.83;4.17;;;;;;;3.37;100.00;152229.41;5032010;28;20464;-78
2023/10/16 02:15:08;;;;;;;4.70;3.80;;;;;;;3.37;100.00;152230.69;5014857;28;20523;-78
2023/10/16 02:17:39;;;;;;;7.50;5.07;;;;;;;3.40;100.00;152238.41;5026863;28;20559;-78
2023/10/16 02:20:11;;;;;;;8.20;6.17;;;;;;;3.40;100.00;152238.41;5023059;28;20463;-78
2023/10/16 02:22:40;;;;;;;6.80;5.23;;;;;;;3.38;100.00;152233.28;5018903;28;20992;-78
2023/10/16 02:25:10;;;;;;;6.40;5.37;;;;;;;3.35;100.00;152224.25;5040949;28;20465;-78
2023/10/16 02:27:37;;;;;;;7.40;6.50;;;;;;;3.34;100.00;152222.97;5009109;28;20466;-78
2023/10/16 02:30:15;;;;;;;8.20;6.23;;;;;;;3.35;100.00;152224.25;5011000;28;20927;-78
2023/10/16 02:32:44;;;;;;;10.60;6.80;;;;;;;3.33;100.00;152220.41;5043386;28;20901;-78
2023/10/16 02:35:14;;;;;;;8.70;6.53;;;;;;;3.37;100.00;152230.69;5018013;28;20455;-78
2023/10/16 02:37:41;;;;;;;6.90;5.80;;;;;;;3.40;100.00;152238.41;5028800;28;20941;-79
2023/10/16 02:40:11;;;;;;;6.70;5.90;;;;;;;3.34;100.00;152222.97;5037308;28;20503;-76
2023/10/16 02:42:39;;;;;;;8.07;6.40;;;;;;;3.21;100.00;152189.50;5027910;28;20582;-79
2023/10/16 02:45:16;;;;;;;9.57;5.70;;;;;;;3.17;100.00;152179.22;5029379;28;20439;-79
2023/10/16 02:47:46;;;;;;;7.37;6.50;;;;;;;3.19;100.00;152184.38;5030975;28;20999;-78
2023/10/16 02:50:14;;;;;;;6.43;5.63;;;;;;;3.27;100.00;152203.66;5041388;28;20900;-78
2023/10/16 02:52:41;;;;;;;6.53;5.60;;;;;;;3.23;100.00;152194.63;5027695;28;20466;-79
2023/10/16 02:55:11;;;;;;;9.20;6.03;;;;;;;3.25;100.00;152199.81;5024485;28;21267;-79
2023/10/16 02:57:40;;;;;;;8.43;5.87;;;;;;;3.20;100.00;152186.97;5019411;28;20454;-79
2023/10/16 03:00:16;;;;;;;9.20;6.33;;;;;;;3.22;100.00;152190.81;5008131;28;20456;-79
2023/10/16 03:02:43;;;;;;;8.97;6.60;;;;;;;3.17;100.00;152177.94;5031252;28;20447;-80
2023/10/16 03:05:16;;;;;;;10.73;6.67;;;;;;;3.11;100.00;152163.78;5008898;28;20458;-79
2023/10/16 03:07:44;;;;;;;8.60;5.93;;;;;;;3.07;100.00;152154.75;5002600;28;20484;-78
2023/10/16 03:10:11;;;;;;;9.30;6.47;;;;;;;3.00;100.00;152135.47;5015181;28;20472;-78
2023/10/16 03:12:38;;;;;;;9.37;6.60;;;;;;;2.93;100.00;152117.47;5029730;28;20451;-79
2023/10/16 03:15:15;;;;;;;7.97;5.70;;;;;;;3.04;100.00;152147.03;5022733;28;20531;-79
2023/10/16 03:17:41;;;;;;;10.73;6.23;;;;;;;3.15;100.00;152174.03;5020017;28;20455;-79
2023/10/16 03:20:19;;;;;;;7.33;5.93;;;;;;;3.17;100.00;152177.94;5018317;28;20818;-79
2023/10/16 03:22:47;;;;;;;7.27;5.67;;;;;;;3.06;100.00;152150.91;5010825;28;21026;-78
2023/10/16 03:25:25;;;;;;;7.33;6.20;;;;;;;3.03;100.00;152144.47;5009816;28;20531;-79
2023/10/16 03:27:52;;;;;;;8.20;6.10;;;;;;;2.98;100.00;152130.31;5008044;28;20435;-78
2023/10/16 03:30:20;;;;;;;7.17;6.33;;;;;;;2.96;100.00;152125.19;5025209;28;20559;-79
2023/10/16 03:32:47;;;;;;;7.70;6.10;;;;;;;2.94;100.00;152120.00;5024674;28;20448;-79
2023/10/16 03:35:20;;;;;;;7.03;5.60;;;;;;;3.04;100.00;152147.03;5010273;28;20917;-79
2023/10/16 03:37:51;;;;;;;10.40;6.93;;;;;;;3.11;100.00;152163.78;5022912;28;21039;-79
2023/10/16 03:40:19;;;;;;;10.33;7.23;;;;;;;3.12;100.00;152166.38;5030704;28;20467;-79
2023/10/16 03:42:46;;;;;;;8.40;6.93;;;;;;;3.13;100.00;152167.63;5025726;28;21018;-79
2023/10/16 03:45:14;;;;;;;8.37;7.50;;;;;;;3.17;100.00;152177.94;5026862;28;20439;-79
2023/10/16 03:47:42;;;;;;;9.30;6.83;;;;;;;3.16;100.00;152175.34;5018394;28;20464;-79
2023/10/16 03:50:09;;;;;;;7.63;6.60;;;;;;;3.15;100.00;152174.03;5026643;28;20932;-79
2023/10/16 03:52:36;;;;;;;9.57;8.17;;;;;;;3.12;100.00;152165.06;5027104;28;20451;-79
2023/10/16 03:55:22;;;;;;;10.13;8.27;;;;;;;3.08;100.00;152156.06;5025725;28;20614;-79
2023/10/16 03:57:50;;;;;;;10.17;8.57;;;;;;;2.96;100.00;152125.19;5018689;28;20459;-79
2023/10/16 04:00:25;;;;;;;9.07;8.17;;;;;;;2.85;100.00;152096.88;5024211;28;20512;-79
2023/10/16 04:02:52;;;;;;;8.40;7.50;;;;;;;2.76;100.00;152073.72;5018900;28;20437;-79
2023/10/16 04:05:33;;;;;;;10.00;7.53;;;;;;;2.73;100.00;152065.97;5011656;28;20466;-79
2023/10/16 04:08:01;;;;;;;8.27;7.17;;;;;;;2.68;100.00;152053.13;5029782;28;20450;-79
2023/10/16 04:10:29;;;;;;;7.00;6.30;;;;;;;2.58;100.00;152027.41;5006208;28;20475;-80
2023/10/16 04:12:56;;;;;;;9.20;6.37;;;;;;;2.56;100.00;152022.28;5031788;28;20447;-80
2023/10/16 04:15:50;;;;;;;7.07;5.83;;;;;;;2.57;100.00;152024.88;5013290;28;20448;-80
2023/10/16 04:18:28;;;;;;;9.27;6.33;;;;;;;2.55;100.00;152020.97;5011230;28;20448;-80
2023/10/16 04:21:09;;;;;;;7.37;5.50;;;;;;;2.52;100.00;152011.97;5013082;28;20451;-80
2023/10/16 04:23:37;;;;;;;6.70;5.93;;;;;;;2.39;100.00;151981.13;5029275;28;20541;-79
2023/10/16 04:31:44;;;;;;;7.73;5.50;;;;;;;2.36;100.00;151973.41;5028254;28;20451;-79
2023/10/16 04:34:23;;;;;;;6.50;5.40;;;;;;;2.31;100.00;151960.53;5029739;28;20441;-80
2023/10/16 04:36:53;;;;;;;8.67;5.40;;;;;;;2.28;100.00;151951.53;5026628;28;20479;-79
2023/10/16 04:45:00;;;;;;;6.43;5.17;;;;;;;2.21;100.00;151934.84;5028307;28;20439;-79
2023/10/16 04:47:29;;;;;;;7.43;5.23;;;;;;;2.22;100.00;151937.44;5030940;28;20924;-79
2023/10/16 04:50:06;;;;;;;6.43;5.23;;;;;;;2.19;100.00;151929.72;5045456;28;20475;-79
2023/10/16 04:53:06;;;;;;;8.60;5.97;;;;;;;2.16;100.00;151920.69;5029495;28;20443;-79
2023/10/16 05:01:17;;;;;;;7.53;5.80;;;;;;;2.17;100.00;151924.53;5020693;28;20462;-77
2023/10/16 05:03:44;;;;;;;9.67;5.30;;;;;;;2.13;100.00;151914.25;5032827;28;20912;-77
2023/10/16 05:06:14;;;;;;;5.83;5.20;;;;;;;2.10;100.00;151906.53;5019651;28;20453;-79
2023/10/16 05:08:59;;;;;;;5.70;4.70;;;;;;;2.11;100.00;151907.84;5035060;28;20447;-78
2023/10/16 05:11:27;;;;;;;5.50;4.20;;;;;;;2.13;100.00;151914.25;5015971;28;20483;-77
2023/10/16 05:14:19;;;;;;;5.87;4.63;;;;;;;2.12;100.00;151911.69;5020581;28;20451;-78
2023/10/16 05:16:49;;;;;;;4.83;4.03;;;;;;;2.12;100.00;151911.69;5020296;28;20460;-77
2023/10/16 05:19:30;;;;;;;6.47;4.20;;;;;;;2.11;100.00;151909.13;5027778;28;20546;-77
2023/10/16 05:22:09;;;;;;;8.17;4.83;;;;;;;2.11;100.00;151907.84;5031744;28;20543;-78
2023/10/16 06:14:22;;;;;;;5.90;4.90;;;;;;;2.83;100.00;152091.75;5016035;28;20469;-78
2023/10/16 06:16:53;;;;;;;6.50;5.20;;;;;;;2.91;100.00;152113.56;5015660;28;20447;-78
2023/10/16 06:19:22;;;;;;;9.73;5.50;;;;;;;3.01;100.00;152138.06;5019111;28;20444;-78
2023/10/16 06:21:50;;;;;;;7.47;5.73;;;;;;;3.12;100.00;152166.38;5016354;28;20471;-78
2023/10/16 06:24:26;;;;;;;7.90;6.10;;;;;;;3.25;100.00;152199.81;5016246;28;20452;-78
2023/10/16 06:26:53;;;;;;;8.40;6.47;;;;;;;3.40;100.00;152238.41;5013779;28;20881;-79
2023/10/16 06:29:19;;;;;;;7.80;6.03;;;;;;;3.62;100.00;152295.06;5015740;28;20462;-79
2023/10/16 06:31:50;;;;;;;7.70;6.00;;;;;;;3.86;100.00;152355.56;5018395;28;20799;-79
2023/10/16 06:34:16;;;;;;;6.70;5.73;;;;;;;4.16;100.00;152431.53;5017224;28;20443;-79
2023/10/16 06:36:45;;;;;;;6.60;5.83;;;;;;;4.45;100.00;152504.97;5016917;28;20460;-78
2023/10/16 06:39:22;;;;;;;7.00;5.60;;;;;;;4.70;100.00;152570.66;5016278;28;20858;-78
2023/10/16 06:41:53;;;;;;;6.07;4.87;;;;;;;4.93;100.00;152629.94;5014474;28;20452;-77
2023/10/16 06:44:21;;;;;;;5.60;4.60;;;;;;;5.20;100.00;152696.94;5031514;28;20487;-78
2023/10/16 06:46:49;;;;;;;4.83;4.30;;;;;;;5.56;100.00;152789.75;5012503;28;20459;-78
2023/10/16 06:49:26;;;;;;;5.17;4.43;;;;;;;5.94;100.00;152887.84;5014194;28;20858;-78
2023/10/16 06:51:56;;;;;;;4.23;3.67;;;;;;;6.35;99.24;152991.06;5012679;28;20443;-77
2023/10/16 06:54:26;;;;;;;6.20;4.40;;;;;;;6.66;96.93;153071.06;5020929;28;20460;-78
2023/10/16 06:56:54;;;;;;;3.87;3.50;;;;;;;6.90;94.60;153133.03;5018018;28;20931;-77
2023/10/16 06:59:21;;;;;;;6.17;3.53;;;;;;;7.13;92.89;153191.09;5017912;28;20476;-78
2023/10/16 07:01:50;;;;;;;6.63;3.80;;;;;;;7.42;92.07;153266.00;5014589;28;20467;-78
2023/10/16 07:04:19;;;;;;;4.10;3.70;;;;;;;7.50;89.54;153286.66;5016101;28;20821;-78
2023/10/16 07:06:48;;;;;;;4.90;3.90;;;;;;;7.35;88.24;153247.94;5018781;28;20590;-79
2023/10/16 07:09:17;;;;;;;4.53;4.13;;;;;;;7.20;88.29;153209.22;5014585;28;20451;-78
2023/10/16 07:11:43;;;;;;;4.47;3.50;;;;;;;7.16;88.27;153200.16;4998578;28;20987;-78
2023/10/16 07:14:17;;;;;;;5.27;3.67;;;;;;;7.17;88.63;153202.75;5013647;28;20458;-78
2023/10/16 07:16:44;;;;;;;4.60;4.00;;;;;;;7.53;89.07;153293.13;5014802;28;20449;-78
2023/10/16 07:19:16;;;;;;;4.57;3.57;;;;;;;7.92;87.75;153393.88;5014790;28;20457;-77
2023/10/16 07:21:48;;;;;;;3.87;3.30;;;;;;;8.28;85.67;153487.00;5017863;28;20448;-76
2023/10/16 07:24:16;;;;;;;4.33;3.60;;;;;;;8.78;84.28;153613.66;5014447;28;20471;-77
2023/10/16 07:26:44;;;;;;;5.33;3.67;;;;;;;9.24;82.35;153732.59;5015449;28;20464;-77
2023/10/16 07:29:11;;;;;;;4.33;3.03;;;;;;;9.57;79.67;153818.00;5014715;28;20483;-77
2023/10/16 07:31:38;;;;;;;3.90;3.50;;;;;;;9.82;78.44;153881.41;5029751;28;21077;-78
2023/10/16 07:34:05;;;;;;;4.80;3.20;;;;;;;9.74;77.12;153860.72;5015398;28;20521;-78
2023/10/16 07:36:31;;;;;;;5.13;3.27;;;;;;;9.39;76.98;153771.44;5005603;28;20559;-78
2023/10/16 07:38:58;;;;;;;5.00;3.40;;;;;;;9.15;78.02;153710.66;5013853;28;20464;-78
2023/10/16 07:41:26;;;;;;;3.60;3.27;;;;;;;9.15;79.25;153709.34;5016162;28;20538;-78
2023/10/16 07:43:56;;;;;;;4.67;3.77;;;;;;;9.26;79.01;153737.81;5013873;28;20456;-78
2023/10/16 07:46:30;;;;;;;4.37;3.50;;;;;;;9.56;78.76;153815.41;5014356;28;20452;-78
2023/10/16 07:49:01;;;;;;;5.10;3.83;;;;;;;9.88;77.38;153895.59;5015556;28;20718;-78
2023/10/16 07:51:28;;;;;;;3.93;3.17;;;;;;;9.82;75.64;153882.69;5016730;28;20495;-78
2023/10/16 07:53:56;;;;;;;3.63;3.33;;;;;;;9.58;76.02;153820.56;5016685;28;20810;-78
2023/10/16 07:56:28;;;;;;;4.13;3.20;;;;;;;8.99;78.01;153669.25;5012483;28;20448;-77
2023/10/16 07:59:06;;;;;;;5.67;3.57;;;;;;;8.81;80.64;153621.41;5016021;28;20475;-76
2023/10/16 08:01:41;;;;;;;3.73;3.37;;;;;;;8.65;81.44;153580.03;5012435;28;20467;-76
2023/10/16 08:04:19;;;;;;;4.87;3.70;;;;;;;8.50;82.05;153542.53;5011352;28;20470;-76
2023/10/16 08:06:46;;;;;;;3.40;3.10;;;;;;;8.39;82.49;153515.38;5016599;28;20463;-76
2023/10/16 08:12:18;;;;;;;5.00;4.00;;;;;;;8.08;84.30;153433.94;5012802;28;20523;-76
2023/10/16 08:14:51;;;;;;;4.03;3.50;;;;;;;8.14;85.36;153450.75;5013702;28;20499;-77
2023/10/16 08:17:17;;;;;;;4.90;4.20;;;;;;;8.05;84.97;153426.22;5013525;28;20511;-76
2023/10/16 08:19:45;;;;;;;3.43;3.13;;;;;;;7.95;84.94;153401.63;5014416;28;20454;-76
2023/10/16 08:22:13;;;;;;;5.03;3.77;;;;;;;7.92;85.12;153395.19;5015274;28;20441;-76
2023/10/16 08:24:44;;;;;;;4.57;3.67;;;;;;;7.80;84.96;153364.19;5013760;28;20820;-76
2023/10/16 08:27:19;;;;;;;6.63;3.73;;;;;;;7.83;85.81;153370.66;5014428;28;20484;-76
2023/10/16 08:29:54;;;;;;;5.57;3.70;;;;;;;7.87;85.75;153380.97;5009219;28;20534;-76
2023/10/16 08:32:53;;;;;;;3.80;3.40;;;;;;;7.75;85.29;153349.97;5012607;28;20487;-76
2023/10/16 08:35:19;;;;;;;6.37;3.27;;;;;;;7.70;85.92;153337.06;5015689;28;20684;-77
2023/10/16 08:37:56;;;;;;;4.40;3.77;;;;;;;7.68;85.86;153331.84;5029412;28;20452;-76
2023/10/16 08:40:24;;;;;;;5.30;3.93;;;;;;;7.63;85.89;153320.25;5013501;28;20618;-76
2023/10/16 08:43:00;;;;;;;4.90;3.70;;;;;;;7.66;86.62;153326.72;5013281;28;20456;-76
2023/10/16 08:45:29;;;;;;;7.27;3.63;;;;;;;7.73;86.88;153344.81;5031040;28;20452;-77
2023/10/16 08:47:57;;;;;;;4.67;4.27;;;;;;;7.75;86.42;153351.28;4994671;28;21014;-77
2023/10/16 08:50:40;;;;;;;4.60;4.13;;;;;;;7.83;86.65;153371.94;5029459;28;20483;-77
2023/10/16 08:53:17;;;;;;;4.17;3.77;;;;;;;7.94;86.09;153399.09;5014828;28;20971;-77
2023/10/16 08:55:44;;;;;;;4.90;4.20;;;;;;;7.96;85.72;153404.22;5011335;28;20473;-76
2023/10/16 08:58:11;;;;;;;4.13;3.73;;;;;;;7.96;84.84;153405.53;5020194;28;20550;-76
2023/10/16 09:00:39;;;;;;;5.10;4.00;;;;;;;7.96;84.73;153404.22;5018161;28;20453;-76
2023/10/16 09:03:10;;;;;;;4.13;3.73;;;;;;;8.02;83.71;153419.75;5016916;28;20535;-77
2023/10/16 09:05:36;;;;;;;5.57;3.47;;;;;;;8.09;84.31;153436.53;5013493;28;20448;-77
2023/10/16 09:08:03;;;;;;;3.90;3.50;;;;;;;8.13;84.00;153448.13;5015679;28;20447;-76
2023/10/16 09:10:30;;;;;;;6.23;3.20;;;;;;;8.14;82.28;153449.44;5015524;28;20579;-77
2023/10/16 09:13:13;;;;;;;4.30;3.17;;;;;;;8.04;83.17;153423.63;5016148;28;20543;-76
2023/10/16 09:15:45;;;;;;;3.87;3.40;;;;;;;8.08;83.47;153435.22;5016548;28;20483;-77
2023/10/16 09:18:14;;;;;;;3.73;3.37;;;;;;;8.18;83.26;153461.06;5018906;28;20443;-77
2023/10/16 09:20:42;;;;;;;5.17;4.03;;;;;;;8.25;83.41;153479.19;5014578;28;20454;-77
2023/10/16 09:23:13;;;;;;;5.20;3.57;;;;;;;8.26;83.14;153481.75;5016724;28;20452;-77
2023/10/16 09:25:43;;;;;;;5.00;3.60;;;;;;;8.24;83.96;153476.59;5016296;28;20860;-77
2023/10/16 09:28:16;;;;;;;10.30;4.93;;;;;;;8.26;83.78;153481.75;5016641;28;20440;-78
2023/10/16 09:30:45;;;;;;;4.27;3.83;;;;;;;8.30;83.25;153492.16;5017628;28;20459;-78
2023/10/16 09:33:12;;;;;;;7.13;3.80;;;;;;;8.25;83.13;153479.19;5016596;28;21098;-78
2023/10/16 09:35:43;;;;;;;4.73;3.23;;;;;;;8.18;83.13;153461.06;5018542;28;20458;-78
2023/10/16 09:38:15;;;;;;;4.27;3.40;;;;;;;8.21;83.89;153468.81;5016371;28;20456;-78
2023/10/16 09:40:44;;;;;;;4.30;3.00;;;;;;;8.23;83.02;153472.72;5015139;28;20478;-77
2023/10/16 09:43:24;;;;;;;5.80;3.97;;;;;;;8.23;82.27;153474.03;5016151;28;20452;-78
2023/10/16 09:46:26;;;;;;;3.60;2.97;;;;;;;8.29;82.41;153489.56;5018917;28;20490;-78
2023/10/16 09:48:42;;;;;;;3.93;3.30;;;;;;;8.35;81.85;153503.78;5017851;28;20525;-78
2023/10/16 09:51:12;;;;;;;4.20;3.47;;;;;;;8.40;81.26;153516.69;5017702;28;20602;-77
2023/10/16 09:53:39;;;;;;;4.73;3.10;;;;;;;8.46;81.67;153532.22;5016438;28;20798;-77
2023/10/16 09:56:09;;;;;;;5.10;3.60;;;;;;;8.54;81.33;153554.19;4996978;28;20476;-78
2023/10/16 09:58:36;;;;;;;4.43;3.70;;;;;;;8.52;82.09;153549.00;5017183;28;21835;-78
2023/10/16 10:01:07;;;;;;;5.43;4.47;;;;;;;8.50;83.00;153542.53;5031846;28;20857;-78
2023/10/16 10:03:35;;;;;;;5.93;5.23;;;;;;;8.52;83.32;153547.75;5014634;28;20463;-78
2023/10/16 10:06:08;;;;;;;6.10;5.50;;;;;;;8.53;83.62;153550.28;5032576;28;20900;-78
2023/10/16 10:08:53;;;;;;;7.83;5.60;;;;;;;8.55;83.60;153555.50;5018695;28;20987;-78
2023/10/16 10:11:37;;;;;;;8.23;5.40;;;;;;;8.51;84.43;153545.13;5032246;28;20561;-78
2023/10/16 10:14:26;;;;;;;6.77;5.47;;;;;;;8.56;83.68;153559.38;5031938;28;20467;-78
2023/10/16 10:16:56;;;;;;;5.50;4.80;;;;;;;8.64;84.78;153577.44;5015643;28;20563;-78
2023/10/16 10:19:31;;;;;;;8.17;5.53;;;;;;;8.69;84.04;153590.38;5015422;28;20463;-78
2023/10/16 10:21:58;;;;;;;5.60;5.00;;;;;;;8.64;83.53;153578.75;5016194;28;20937;-78
2023/10/16 10:24:25;;;;;;;6.07;4.93;;;;;;;8.67;84.44;153586.50;5014894;28;20445;-78
2023/10/16 10:26:51;;;;;;;4.80;4.20;;;;;;;8.67;84.10;153585.22;5018874;28;21000;-79
2023/10/16 10:29:20;;;;;;;5.97;4.40;;;;;;;8.71;82.70;153595.56;5014891;28;21066;-78
2023/10/16 10:31:47;;;;;;;5.43;3.80;;;;;;;8.71;82.44;153595.56;5016233;28;20484;-78
2023/10/16 10:34:22;;;;;;;5.20;4.47;;;;;;;8.64;82.35;153578.75;5017393;28;20483;-79
2023/10/16 10:36:49;;;;;;;6.63;5.20;;;;;;;8.65;82.59;153580.03;5013777;28;20455;-78
2023/10/16 10:39:39;;;;;;;5.40;4.63;;;;;;;8.80;82.13;153620.13;5016185;28;20566;-78
2023/10/16 10:42:08;;;;;;;6.17;4.93;;;;;;;8.87;82.38;153638.22;5031393;28;20845;-79
2023/10/16 10:44:37;;;;;;;6.07;5.20;;;;;;;8.80;81.48;153618.81;5016177;28;20459;-78
2023/10/16 10:47:18;;;;;;;8.33;5.03;;;;;;;8.79;81.80;153616.25;5017037;28;20457;-78
2023/10/16 10:49:46;;;;;;;4.50;4.10;;;;;;;8.82;81.85;153623.97;5015268;28;20517;-78
2023/10/16 10:52:15;;;;;;;4.40;3.57;;;;;;;8.93;80.09;153653.72;5014451;28;20475;-78
2023/10/16 10:54:43;;;;;;;4.80;3.90;;;;;;;8.98;79.61;153665.34;5014325;28;20569;-78
2023/10/16 10:57:16;;;;;;;7.27;3.87;;;;;;;9.00;79.93;153671.81;5014967;28;20449;-78
2023/10/16 10:59:46;;;;;;;4.63;3.53;;;;;;;9.03;80.63;153678.28;5031750;28;20453;-78
2023/10/16 11:02:22;;;;;;;4.57;3.63;;;;;;;9.09;80.26;153693.81;5013525;28;20676;-78
2023/10/16 11:04:53;;;;;;;4.53;3.50;;;;;;;9.09;79.21;153695.13;5030134;28;20455;-78
2023/10/16 11:07:25;;;;;;;3.70;3.30;;;;;;;9.09;79.14;153693.81;5014734;28;20955;-78
2023/10/16 11:09:51;;;;;;;4.87;3.80;;;;;;;9.05;80.01;153683.50;5011938;28;20444;-78
2023/10/16 11:12:24;;;;;;;3.47;3.17;;;;;;;9.14;80.19;153708.03;5015590;28;21170;-78
2023/10/16 11:14:51;;;;;;;4.80;3.50;;;;;;;9.19;79.09;153719.69;5013946;28;20448;-78
2023/10/16 11:17:32;;;;;;;3.70;3.30;;;;;;;9.13;79.13;153704.19;5016159;28;20448;-78
2023/10/16 11:20:11;;;;;;;3.60;2.83;;;;;;;9.16;78.56;153711.91;5015811;28;20550;-79
2023/10/16 11:22:43;;;;;;;3.40;3.10;;;;;;;9.39;78.04;153770.13;5012626;28;20457;-78
2023/10/16 11:25:12;;;;;;;3.50;2.70;;;;;;;9.44;75.55;153783.06;5015205;28;20453;-78
2023/10/16 11:27:41;;;;;;;2.73;2.43;;;;;;;9.38;75.84;153768.84;5014205;28;20471;-78
2023/10/16 11:30:11;;;;;;;3.57;3.13;;;;;;;9.37;75.61;153764.97;4998562;28;20455;-78
2023/10/16 11:32:41;;;;;;;3.30;2.73;;;;;;;9.38;75.98;153767.53;5033354;28;20502;-78
2023/10/16 11:35:14;;;;;;;2.80;2.50;;;;;;;9.55;74.99;153811.53;5034679;28;20449;-78
2023/10/16 11:37:43;;;;;;;3.73;3.10;;;;;;;9.63;74.33;153833.53;5020332;28;20507;-78
2023/10/16 11:40:18;;;;;;;3.63;2.73;;;;;;;9.67;73.68;153842.56;5017246;28;20486;-79
2023/10/16 11:42:45;;;;;;;3.00;2.60;;;;;;;9.62;74.29;153829.63;5017532;28;20541;-78
2023/10/16 11:45:18;;;;;;;3.57;3.27;;;;;;;9.60;73.94;153824.47;5015240;28;20449;-78
2023/10/16 11:47:54;;;;;;;3.40;3.07;;;;;;;9.54;74.47;153810.25;5015677;28;20945;-78
2023/10/16 11:50:34;;;;;;;3.43;2.47;;;;;;;9.46;78.07;153788.22;5016084;28;20534;-78
2023/10/16 11:53:00;;;;;;;3.03;2.50;;;;;;;9.45;75.62;153786.94;5014583;28;20805;-78
2023/10/16 11:55:29;;;;;;;3.40;2.53;;;;;;;9.65;74.13;153837.41;5012539;28;20962;-78
2023/10/16 11:57:56;;;;;;;2.90;2.20;;;;;;;9.69;73.70;153849.03;5013937;28;20452;-78
2023/10/16 12:00:30;;;;;;;3.87;2.13;;;;;;;9.77;73.56;153868.44;5015409;28;20433;-78
2023/10/16 12:02:57;;;;;;;2.97;2.57;;;;;;;9.83;73.54;153883.97;5015006;28;20439;-78
2023/10/16 12:05:28;;;;;;;2.70;2.00;;;;;;;9.81;72.56;153878.81;5020106;28;21044;-78
2023/10/16 12:07:56;;;;;;;2.67;2.00;;;;;;;9.73;73.48;153859.41;4998700;28;20986;-78
2023/10/16 12:10:23;;;;;;;2.97;2.50;;;;;;;9.78;70.44;153872.34;5019144;28;20546;-78
2023/10/16 12:12:50;;;;;;;3.07;2.20;;;;;;;9.82;69.71;153882.69;4997763;28;20461;-78
2023/10/16 12:15:16;;;;;;;2.63;1.63;;;;;;;9.96;68.99;153916.31;5016512;28;21040;-78
2023/10/16 12:17:43;;;;;;;3.13;2.43;;;;;;;10.02;66.89;153931.88;5032544;28;20807;-78
2023/10/16 12:20:12;;;;;;;2.80;2.20;;;;;;;10.12;66.49;153959.09;5019341;28;20440;-77
2023/10/16 12:22:40;;;;;;;2.63;2.20;;;;;;;10.21;66.89;153982.41;5016924;28;20469;-77
2023/10/16 12:25:09;;;;;;;2.93;2.10;;;;;;;10.22;66.76;153983.66;5021287;28;20443;-78
2023/10/16 12:27:37;;;;;;;3.07;2.10;;;;;;;10.17;66.75;153970.72;5019683;28;20450;-78
2023/10/16 12:30:04;;;;;;;3.00;1.87;;;;;;;10.23;68.96;153986.28;5016308;28;20479;-78
2023/10/16 12:32:31;;;;;;;3.60;2.50;;;;;;;10.31;69.28;154008.28;5021056;28;20481;-78
2023/10/16 12:35:00;;;;;;;2.43;2.10;;;;;;;10.33;69.91;154012.16;5016111;28;20521;-78
2023/10/16 12:37:30;;;;;;;2.43;1.97;;;;;;;10.33;70.01;154012.16;5015107;28;20455;-78
2023/10/16 12:39:58;;;;;;;2.73;2.20;;;;;;;10.26;69.85;153994.03;5036076;28;20475;-78
2023/10/16 12:42:25;;;;;;;3.30;2.20;;;;;;;10.21;70.16;153982.41;5034831;28;20880;-78
2023/10/16 12:44:54;;;;;;;5.30;2.43;;;;;;;10.13;70.49;153960.41;5020826;28;20838;-78
2023/10/16 12:47:20;;;;;;;2.50;2.10;;;;;;;10.08;70.44;153948.72;5015032;28;20554;-78
2023/10/16 12:49:47;;;;;;;3.57;2.37;;;;;;;10.14;69.84;153963.00;5017240;28;20543;-78
2023/10/16 12:52:14;;;;;;;2.87;2.00;;;;;;;10.21;68.70;153981.09;5019258;28;20533;-78
2023/10/16 12:54:43;;;;;;;2.60;1.97;;;;;;;10.25;69.02;153992.75;5020167;28;20493;-77